Lake Hamilton, Florida
Current Conditions -  °F | °C
As of 12:18 AM on Wednesday 26 Nov 2014 (Local Time) from KGIF Reporting Station
Moderate Rain Moderate Rain  
Wind Chill: 72°   Ceiling: 700
Heat Index: 72°   Visibility: 7mi
Dew Point: 71°   Wind: 7mph
Humidity: 97%   Direction: 140°SE
Pressure: 29.87"   Gusts: NA
Location:  28.04°N, 81.63°W
Report Text: KGIF 260518Z AUTO 14006KT 7SM RA BKN007 OVC014 22/22 A2987 RMK AO2 LTG DSNT SE AND S RAB01 CIG 005V012 P0004 T02220217
Loading
Personal Weather Stations






























Interactive Weather Map New forecast layout! Learn more

10-Day Weather Forecast

Advertisements
Track Severe Weather on mobile